createdAt,value
2022-08-11T00:00:15.602Z,101948.40
2022-08-11T00:03:08.524Z,101945.20
2022-08-11T00:05:55.980Z,101943.80
2022-08-11T00:08:28.290Z,101943.40
2022-08-11T00:11:05.272Z,101941.60
2022-08-11T00:13:46.893Z,101934.60
2022-08-11T00:16:23.110Z,101936.00
2022-08-11T00:18:58.794Z,101933.00
2022-08-11T00:22:02.450Z,101929.20
2022-08-11T00:24:18.871Z,101934.20
2022-08-11T00:26:53.412Z,101935.80
2022-08-11T00:29:23.017Z,101938.40
2022-08-11T00:31:56.993Z,101934.20
2022-08-11T00:34:28.974Z,101933.60
2022-08-11T00:37:17.443Z,101936.80
2022-08-11T00:39:54.976Z,101933.40
2022-08-11T00:42:32.581Z,101933.20
2022-08-11T00:45:31.220Z,101931.00
2022-08-11T00:48:30.729Z,101931.20
2022-08-11T00:52:04.725Z,101934.60
2022-08-11T00:54:46.955Z,101933.40
2022-08-11T00:57:36.877Z,101940.40
2022-08-11T01:00:24.986Z,101942.80
2022-08-11T01:03:21.212Z,101945.00
2022-08-11T01:06:11.505Z,101949.20
2022-08-11T01:09:09.479Z,101947.20
2022-08-11T01:12:36.841Z,101956.20
2022-08-11T01:15:27.654Z,101949.80
2022-08-11T01:18:55.103Z,101953.60
2022-08-11T01:22:07.424Z,101956.60
2022-08-11T01:25:15.843Z,101949.80
2022-08-11T01:28:21.701Z,101951.60
2022-08-11T01:31:27.658Z,101957.40
2022-08-11T01:34:17.750Z,101950.80
2022-08-11T01:37:49.005Z,101955.20
2022-08-11T01:40:53.528Z,101958.40
2022-08-11T01:44:27.446Z,101956.60
2022-08-11T01:47:54.140Z,101951.40
2022-08-11T01:50:57.289Z,101949.80
2022-08-11T01:53:45.133Z,101953.20
2022-08-11T01:56:38.797Z,101948.00
2022-08-11T01:59:33.595Z,101950.60
2022-08-11T02:02:54.418Z,101954.60
2022-08-11T02:05:50.842Z,101953.40
2022-08-11T02:08:43.203Z,101954.20
2022-08-11T02:11:30.659Z,101954.60
2022-08-11T02:14:30.223Z,101955.20
2022-08-11T02:17:48.267Z,101956.20
2022-08-11T02:21:09.896Z,101954.60
2022-08-11T02:24:05.070Z,101960.00
2022-08-11T02:26:50.788Z,101954.40
2022-08-11T02:29:38.936Z,101956.80
2022-08-11T02:32:32.306Z,101954.00
2022-08-11T02:35:29.767Z,101952.60
2022-08-11T02:38:04.077Z,101953.60
2022-08-11T02:41:01.847Z,101951.00
2022-08-11T02:43:59.209Z,101953.60
2022-08-11T02:46:49.317Z,101949.60
2022-08-11T02:50:06.742Z,101952.80
2022-08-11T02:52:51.898Z,101948.40
2022-08-11T02:55:55.593Z,101950.80
2022-08-11T02:59:20.512Z,101950.60
2022-08-11T03:02:31.905Z,101950.60
2022-08-11T03:05:17.486Z,101944.60
2022-08-11T03:07:58.764Z,101950.20
2022-08-11T03:10:42.968Z,101944.40
2022-08-11T03:13:47.647Z,101945.40
2022-08-11T03:16:46.234Z,101953.60
2022-08-11T03:19:57.725Z,101949.00
2022-08-11T03:23:31.032Z,101952.60
2022-08-11T03:26:10.671Z,101959.40
2022-08-11T03:29:25.020Z,101960.80
2022-08-11T03:32:08.359Z,101956.00
2022-08-11T03:34:41.386Z,101957.80
2022-08-11T03:37:47.204Z,101958.00
2022-08-11T03:42:01.312Z,101962.60
2022-08-11T03:44:33.343Z,101962.20
2022-08-11T03:47:23.417Z,101958.20
2022-08-11T03:50:24.512Z,101958.00
2022-08-11T03:54:01.861Z,101958.20
2022-08-11T03:56:55.328Z,101958.40
2022-08-11T03:59:45.931Z,101956.80
2022-08-11T04:02:29.976Z,101959.80
2022-08-11T04:05:48.332Z,101957.40
2022-08-11T04:08:38.006Z,101960.20
2022-08-11T04:11:26.354Z,101962.00
2022-08-11T04:14:40.615Z,101960.00
2022-08-11T04:17:23.837Z,101957.20
2022-08-11T04:20:34.099Z,101956.00
2022-08-11T04:24:37.236Z,101955.40
2022-08-11T04:26:39.570Z,101952.60
2022-08-11T04:30:03.848Z,101950.60
2022-08-11T04:33:02.958Z,101949.40
2022-08-11T04:35:51.428Z,101943.20
2022-08-11T04:38:59.114Z,101947.80
2022-08-11T04:42:21.663Z,101951.60
2022-08-11T04:45:12.571Z,101947.00
2022-08-11T04:48:57.444Z,101946.80
2022-08-11T04:52:37.902Z,101943.00
2022-08-11T04:56:11.729Z,101943.60
2022-08-11T04:59:48.512Z,101945.00
2022-08-11T05:02:57.647Z,101951.00
2022-08-11T05:06:20.095Z,101953.80
2022-08-11T05:09:26.262Z,101947.40
2022-08-11T05:12:10.622Z,101944.60
2022-08-11T05:15:12.070Z,101944.60
2022-08-11T05:18:35.341Z,101939.00
2022-08-11T05:21:29.726Z,101936.60
2022-08-11T05:25:04.500Z,101935.40
2022-08-11T05:28:47.513Z,101933.60
2022-08-11T05:31:39.014Z,101935.20
2022-08-11T05:34:42.928Z,101925.00
2022-08-11T05:37:42.847Z,101926.60
2022-08-11T05:40:33.447Z,101929.00
2022-08-11T05:43:31.217Z,101924.00
2022-08-11T05:46:25.610Z,101918.20
2022-08-11T05:49:14.468Z,101917.00
2022-08-11T05:52:05.607Z,101911.80
2022-08-11T05:55:06.124Z,101908.40
2022-08-11T05:57:50.952Z,101905.00
2022-08-11T06:00:23.497Z,101908.60
2022-08-11T06:03:04.432Z,101915.00
2022-08-11T06:05:44.120Z,101917.40
2022-08-11T06:08:15.071Z,101920.20
2022-08-11T06:10:45.809Z,101922.00
2022-08-11T06:13:18.736Z,101922.80
2022-08-11T06:15:52.694Z,101918.40
2022-08-11T06:18:22.069Z,101929.60
2022-08-11T06:20:58.568Z,101932.00
2022-08-11T06:23:36.200Z,101935.60
2022-08-11T06:26:14.427Z,101934.40
2022-08-11T06:28:46.487Z,101934.60
2022-08-11T06:31:21.025Z,101933.20
2022-08-11T06:34:34.659Z,101932.00
2022-08-11T06:37:34.467Z,101929.20
2022-08-11T06:40:40.638Z,101935.60
2022-08-11T06:43:21.821Z,101934.00
2022-08-11T06:46:08.835Z,101924.40
2022-08-11T06:48:41.656Z,101925.20
2022-08-11T06:51:14.917Z,101925.60
2022-08-11T06:54:04.920Z,101926.00
2022-08-11T07:00:07.811Z,101933.20
2022-08-11T07:02:56.519Z,101933.40
2022-08-11T07:05:44.095Z,101929.60
2022-08-11T07:09:15.045Z,101931.00
2022-08-11T07:12:21.412Z,101928.20
2022-08-11T07:15:15.410Z,101926.40
2022-08-11T07:18:12.854Z,101921.20
2022-08-11T07:21:02.362Z,101917.40
2022-08-11T07:23:54.669Z,101912.00
2022-08-11T07:26:46.424Z,101912.20
2022-08-11T07:29:16.974Z,101910.60
2022-08-11T07:31:54.228Z,101909.20
2022-08-11T07:34:38.574Z,101913.20
2022-08-11T07:37:18.217Z,101913.80
2022-08-11T07:39:50.098Z,101909.80
2022-08-11T07:42:27.511Z,101911.00
2022-08-11T07:45:16.432Z,101909.40
2022-08-11T07:48:05.390Z,101907.20
2022-08-11T07:50:56.226Z,101909.60
2022-08-11T07:53:25.883Z,101907.20
2022-08-11T07:55:58.600Z,101909.20
2022-08-11T07:58:53.240Z,101906.40
2022-08-11T08:01:44.355Z,101909.80
2022-08-11T08:04:36.227Z,101912.40
2022-08-11T08:07:24.984Z,101913.00
2022-08-11T08:10:15.847Z,101913.80
2022-08-11T08:13:04.250Z,101911.60
2022-08-11T08:15:52.074Z,101908.60
2022-08-11T08:18:26.751Z,101911.60
2022-08-11T08:21:12.409Z,101912.40
2022-08-11T08:23:46.306Z,101911.40
2022-08-11T08:26:36.490Z,101913.60
2022-08-11T08:29:26.677Z,101914.80
2022-08-11T08:31:57.233Z,101918.60
2022-08-11T08:34:27.412Z,101923.00
2022-08-11T08:37:01.734Z,101922.20
2022-08-11T08:39:34.866Z,101922.80
2022-08-11T08:42:11.641Z,101920.40
2022-08-11T08:44:57.302Z,101922.40
2022-08-11T08:47:41.903Z,101921.40
2022-08-11T08:50:21.742Z,101920.20
2022-08-11T08:53:07.804Z,101923.20
2022-08-11T08:55:37.002Z,101922.60
2022-08-11T08:58:06.388Z,101920.80
2022-08-11T09:00:45.829Z,101917.20
2022-08-11T09:03:39.932Z,101922.60
2022-08-11T09:06:04.638Z,101918.80
2022-08-11T09:08:35.500Z,101917.40
2022-08-11T09:11:24.830Z,101915.20
2022-08-11T09:14:05.105Z,101913.40
2022-08-11T09:16:39.725Z,101910.80
2022-08-11T09:19:09.635Z,101909.00
2022-08-11T09:21:49.082Z,101907.40
2022-08-11T09:24:38.851Z,101903.60
2022-08-11T09:27:09.153Z,101901.60
2022-08-11T09:29:38.944Z,101897.60
2022-08-11T09:32:09.261Z,101893.80
2022-08-11T09:34:39.946Z,101895.00
2022-08-11T09:37:55.934Z,101891.60
2022-08-11T09:40:30.827Z,101902.60
2022-08-11T09:43:22.397Z,101897.40
2022-08-11T09:45:54.348Z,101898.00
2022-08-11T09:48:26.354Z,101897.40
2022-08-11T09:50:59.254Z,101894.20
2022-08-11T09:53:36.198Z,101889.80
2022-08-11T09:56:38.677Z,101889.80
2022-08-11T09:59:08.141Z,101881.20
2022-08-11T10:01:59.647Z,101888.60
2022-08-11T10:04:45.999Z,101891.40
2022-08-11T10:07:20.348Z,101877.00
2022-08-11T10:10:03.201Z,101871.80
2022-08-11T10:12:42.780Z,101868.60
2022-08-11T10:15:38.715Z,101869.60
2022-08-11T10:18:42.723Z,101860.40
2022-08-11T10:21:25.436Z,101867.60
2022-08-11T10:24:15.218Z,101865.20
2022-08-11T10:26:55.030Z,101869.20
2022-08-11T10:29:52.056Z,101860.20
2022-08-11T10:32:58.748Z,101853.60
2022-08-11T10:35:33.186Z,101851.80
2022-08-11T10:38:07.700Z,101848.40
2022-08-11T10:40:41.080Z,101849.80
2022-08-11T10:43:14.542Z,101855.20
2022-08-11T10:46:30.396Z,101846.20
2022-08-11T10:49:01.556Z,101847.60
2022-08-11T10:51:53.737Z,101848.20
2022-08-11T10:54:43.005Z,101836.80
2022-08-11T10:57:34.200Z,101836.80
2022-08-11T11:00:07.193Z,101845.40
2022-08-11T11:02:36.897Z,101837.40
2022-08-11T11:05:25.289Z,101828.00
2022-08-11T11:08:29.873Z,101826.00
2022-08-11T11:11:00.135Z,101826.80
2022-08-11T11:13:53.361Z,101831.20
2022-08-11T11:16:44.377Z,101822.60
2022-08-11T11:19:15.563Z,101818.80
2022-08-11T11:21:44.752Z,101818.00
2022-08-11T11:24:42.624Z,101815.20
2022-08-11T11:27:53.811Z,101817.00
2022-08-11T11:30:28.245Z,101803.40
2022-08-11T11:33:09.107Z,101805.80
2022-08-11T11:35:45.017Z,101800.80
2022-08-11T11:38:14.319Z,101802.80
2022-08-11T11:40:43.948Z,101793.60
2022-08-11T11:43:13.268Z,101811.60
2022-08-11T11:45:43.042Z,101796.60
2022-08-11T11:48:12.623Z,101791.40
2022-08-11T11:50:42.131Z,101792.80
2022-08-11T11:53:12.220Z,101792.00
2022-08-11T11:55:41.931Z,101792.00
2022-08-11T11:58:30.026Z,101791.40
2022-08-11T12:01:20.319Z,101782.20
2022-08-11T12:03:52.725Z,101778.80
2022-08-11T12:06:24.491Z,101777.80
2022-08-11T12:08:57.536Z,101780.40
2022-08-11T12:11:47.119Z,101779.60
2022-08-11T12:14:22.133Z,101770.60
2022-08-11T12:16:51.661Z,101765.60
2022-08-11T12:19:26.288Z,101762.80
2022-08-11T12:22:17.706Z,101756.60
2022-08-11T12:25:06.157Z,101750.00
2022-08-11T12:27:38.893Z,101743.60
2022-08-11T12:30:09.674Z,101745.20
2022-08-11T12:32:41.654Z,101744.20
2022-08-11T12:35:11.724Z,101743.40
2022-08-11T12:38:01.234Z,101746.00
2022-08-11T12:44:06.089Z,101731.60
2022-08-11T12:46:39.070Z,101725.20
2022-08-11T12:49:34.900Z,101722.20
2022-08-11T12:52:15.260Z,101722.40
2022-08-11T12:54:58.025Z,101711.40
2022-08-11T12:57:57.386Z,101715.40
2022-08-11T13:00:47.266Z,101711.40
2022-08-11T13:03:39.508Z,101711.60
2022-08-11T13:06:09.659Z,101709.20
2022-08-11T13:08:40.295Z,101702.40
2022-08-11T13:11:55.872Z,101699.20
2022-08-11T13:14:19.929Z,101702.40
2022-08-11T13:17:08.587Z,101697.00
2022-08-11T13:19:38.598Z,101693.40
2022-08-11T13:22:07.639Z,101695.60
2022-08-11T13:24:37.551Z,101686.20
2022-08-11T13:27:07.397Z,101685.60
2022-08-11T13:29:37.034Z,101679.80
2022-08-11T13:32:06.243Z,101677.60
2022-08-11T13:34:41.983Z,101676.00
2022-08-11T13:37:14.658Z,101679.20
2022-08-11T13:39:48.709Z,101674.20
2022-08-11T13:42:21.458Z,101669.60
2022-08-11T13:44:50.759Z,101672.00
2022-08-11T13:47:23.952Z,101678.00
2022-08-11T13:49:53.253Z,101673.40
2022-08-11T13:52:22.452Z,101676.60
2022-08-11T13:54:53.538Z,101670.40
2022-08-11T13:58:18.289Z,101667.40
2022-08-11T14:00:25.094Z,101664.20
2022-08-11T14:02:58.874Z,101663.40
2022-08-11T14:05:34.425Z,101658.00
2022-08-11T14:08:37.085Z,101657.00
2022-08-11T14:12:21.692Z,101646.40
2022-08-11T14:14:17.058Z,101656.20
2022-08-11T14:16:48.547Z,101648.80
2022-08-11T14:19:21.439Z,101645.20
2022-08-11T14:22:10.894Z,101646.00
2022-08-11T14:24:43.224Z,101642.40
2022-08-11T14:28:30.679Z,101646.00
2022-08-11T14:30:05.542Z,101649.40
2022-08-11T14:32:34.756Z,101641.40
2022-08-11T14:35:22.150Z,101643.00
2022-08-11T14:37:51.308Z,101634.20
2022-08-11T14:40:39.159Z,101635.40
2022-08-11T14:44:12.255Z,101638.00
2022-08-11T14:46:35.528Z,101637.20
2022-08-11T14:49:05.022Z,101629.60
2022-08-11T14:51:34.857Z,101632.60
2022-08-11T14:54:23.206Z,101633.00
2022-08-11T14:56:54.712Z,101636.00
2022-08-11T14:59:26.109Z,101630.60
2022-08-11T15:02:14.049Z,101635.40
2022-08-11T15:04:43.348Z,101628.60
2022-08-11T15:07:17.226Z,101626.60
2022-08-11T15:10:11.825Z,101623.20
2022-08-11T15:12:39.642Z,101620.00
2022-08-11T15:15:29.193Z,101618.00
2022-08-11T15:18:02.213Z,101610.80
2022-08-11T15:20:53.733Z,101610.80
2022-08-11T15:23:41.439Z,101608.80
2022-08-11T15:26:48.836Z,101600.80
2022-08-11T15:29:42.916Z,101601.00
2022-08-11T15:32:22.148Z,101600.80
2022-08-11T15:35:22.721Z,101595.00
2022-08-11T15:37:57.949Z,101597.20
2022-08-11T15:40:59.581Z,101591.00
2022-08-11T15:44:15.170Z,101587.00
2022-08-11T15:46:53.776Z,101587.20
2022-08-11T15:50:12.721Z,101587.00
2022-08-11T15:52:30.304Z,101583.20
2022-08-11T15:55:02.606Z,101582.40
2022-08-11T15:57:49.980Z,101581.20
2022-08-11T16:00:38.532Z,101582.00
2022-08-11T16:04:05.550Z,101576.80
2022-08-11T16:06:18.707Z,101571.40
2022-08-11T16:08:48.736Z,101575.00
2022-08-11T16:11:21.858Z,101573.00
2022-08-11T16:14:11.908Z,101571.00
2022-08-11T16:16:43.391Z,101571.20
2022-08-11T16:19:13.729Z,101572.20
2022-08-11T16:21:44.359Z,101572.20
2022-08-11T16:27:03.990Z,101569.60
2022-08-11T16:27:14.335Z,101572.60
2022-08-11T16:29:48.135Z,101570.80
2022-08-11T16:32:24.088Z,101576.20
2022-08-11T16:35:25.573Z,101577.80
2022-08-11T16:38:15.660Z,101577.20
2022-08-11T16:40:45.378Z,101573.60
2022-08-11T16:43:40.170Z,101570.60
2022-08-11T16:46:19.715Z,101570.80
2022-08-11T16:48:53.744Z,101570.60
2022-08-11T16:51:23.637Z,101575.60
2022-08-11T16:54:04.798Z,101574.00
2022-08-11T16:56:45.796Z,101577.20
2022-08-11T16:59:32.707Z,101578.40
2022-08-11T17:02:39.794Z,101577.40
2022-08-11T17:05:54.716Z,101577.20
2022-08-11T17:08:56.630Z,101580.20
2022-08-11T17:11:50.819Z,101580.00
2022-08-11T17:14:36.523Z,101583.60
2022-08-11T17:17:32.122Z,101582.60
2022-08-11T17:20:41.192Z,101576.00
2022-08-11T17:23:20.183Z,101576.40
2022-08-11T17:25:59.591Z,101578.60
2022-08-11T17:28:35.385Z,101583.00
2022-08-11T17:31:24.848Z,101580.40
2022-08-11T17:34:16.064Z,101579.60
2022-08-11T17:36:45.949Z,101584.80
2022-08-11T17:39:16.415Z,101587.20
2022-08-11T17:42:05.465Z,101586.80
2022-08-11T17:44:54.402Z,101591.00
2022-08-11T17:47:46.468Z,101594.40
2022-08-11T17:50:17.825Z,101589.20
2022-08-11T17:53:07.597Z,101593.00
2022-08-11T17:55:58.185Z,101595.00
2022-08-11T17:58:46.450Z,101593.20
2022-08-11T18:01:16.356Z,101595.00
2022-08-11T18:03:57.587Z,101596.60
2022-08-11T18:06:33.696Z,101598.00
2022-08-11T18:09:35.464Z,101601.80
2022-08-11T18:12:27.397Z,101605.40
2022-08-11T18:15:16.563Z,101606.00
2022-08-11T18:18:04.309Z,101610.60
2022-08-11T18:20:54.079Z,101607.00
2022-08-11T18:23:46.835Z,101603.40
2022-08-11T18:26:40.197Z,101609.00
2022-08-11T18:29:29.670Z,101604.40
2022-08-11T18:32:21.184Z,101603.60
2022-08-11T18:35:14.353Z,101605.20
2022-08-11T18:38:08.130Z,101606.20
2022-08-11T18:40:57.296Z,101605.80
2022-08-11T18:43:48.817Z,101608.40
2022-08-11T18:46:38.804Z,101609.80
2022-08-11T18:50:02.148Z,101613.80
2022-08-11T18:52:50.520Z,101615.40
2022-08-11T18:55:39.892Z,101617.00
2022-08-11T18:58:31.312Z,101614.20
2022-08-11T19:01:21.056Z,101616.00
2022-08-11T19:04:11.903Z,101617.80
2022-08-11T19:07:07.722Z,101615.80
2022-08-11T19:09:57.402Z,101615.40
2022-08-11T19:12:46.262Z,101621.20
2022-08-11T19:15:34.405Z,101621.40
2022-08-11T19:18:24.288Z,101628.00
2022-08-11T19:21:14.174Z,101627.60
2022-08-11T19:24:07.026Z,101624.60
2022-08-11T19:26:55.682Z,101628.60
2022-08-11T19:30:05.093Z,101633.80
2022-08-11T19:32:52.960Z,101635.60
2022-08-11T19:35:40.693Z,101641.40
2022-08-11T19:38:28.735Z,101638.00
2022-08-11T19:41:56.551Z,101640.40
2022-08-11T19:44:28.165Z,101640.20
2022-08-11T19:47:16.921Z,101636.00
2022-08-11T19:50:05.124Z,101639.80
2022-08-11T19:52:55.461Z,101644.00
2022-08-11T19:55:45.855Z,101641.40
2022-08-11T19:58:35.127Z,101649.60
2022-08-11T20:01:24.943Z,101643.80
2022-08-11T20:04:12.849Z,101642.60
2022-08-11T20:07:00.988Z,101644.60
2022-08-11T20:10:04.549Z,101649.60
2022-08-11T20:12:57.041Z,101652.40
2022-08-11T20:15:46.310Z,101659.60
2022-08-11T20:18:35.170Z,101655.40
2022-08-11T20:21:29.922Z,101654.60
2022-08-11T20:24:20.981Z,101662.20
2022-08-11T20:27:18.835Z,101664.20
2022-08-11T20:30:16.415Z,101666.80
2022-08-11T20:33:04.554Z,101665.80
2022-08-11T20:35:55.162Z,101670.40
2022-08-11T20:38:47.907Z,101677.00
2022-08-11T20:41:58.967Z,101677.00
2022-08-11T20:44:49.076Z,101681.00
2022-08-11T20:47:56.216Z,101680.40
2022-08-11T20:50:46.349Z,101681.20
2022-08-11T20:53:39.344Z,101682.40
2022-08-11T20:56:30.170Z,101684.80
2022-08-11T20:59:21.940Z,101683.80
2022-08-11T21:02:11.982Z,101684.00
2022-08-11T21:05:00.599Z,101690.60
2022-08-11T21:07:59.112Z,101683.80
2022-08-11T21:10:53.191Z,101686.40
2022-08-11T21:13:46.640Z,101686.20
2022-08-11T21:16:42.963Z,101690.80
2022-08-11T21:20:01.691Z,101689.00
2022-08-11T21:23:10.345Z,101692.40
2022-08-11T21:26:07.861Z,101687.00
2022-08-11T21:28:58.917Z,101690.20
2022-08-11T21:31:49.748Z,101695.20
2022-08-11T21:34:41.062Z,101698.60
2022-08-11T21:37:31.063Z,101701.40
2022-08-11T21:40:21.628Z,101700.60
2022-08-11T21:43:12.127Z,101704.20
2022-08-11T21:46:02.110Z,101700.80
2022-08-11T21:48:50.668Z,101708.40
2022-08-11T21:51:38.191Z,101702.20
2022-08-11T21:54:33.195Z,101700.80
2022-08-11T21:57:22.466Z,101705.60
2022-08-11T22:00:16.982Z,101709.20
2022-08-11T22:03:07.045Z,101706.00
2022-08-11T22:05:56.832Z,101706.20
2022-08-11T22:08:45.176Z,101703.20
2022-08-11T22:11:34.547Z,101705.40
2022-08-11T22:14:23.614Z,101701.00
2022-08-11T22:17:11.345Z,101697.60
2022-08-11T22:20:01.202Z,101700.20
2022-08-11T22:22:53.742Z,101698.00
2022-08-11T22:25:51.539Z,101705.00
2022-08-11T22:28:42.150Z,101706.80
2022-08-11T22:31:31.517Z,101706.80
2022-08-11T22:34:19.148Z,101709.80
2022-08-11T22:37:08.725Z,101707.20
2022-08-11T22:40:02.666Z,101707.00
2022-08-11T22:42:52.487Z,101703.60
2022-08-11T22:45:40.835Z,101701.80
2022-08-11T22:48:29.721Z,101709.60
2022-08-11T22:51:19.067Z,101714.80
2022-08-11T22:54:08.974Z,101718.80
2022-08-11T22:56:57.707Z,101712.40
2022-08-11T22:59:45.954Z,101718.20
2022-08-11T23:02:34.429Z,101714.80
2022-08-11T23:05:22.733Z,101720.60
2022-08-11T23:08:10.690Z,101719.60
2022-08-11T23:10:58.835Z,101723.80
2022-08-11T23:13:49.331Z,101727.00
2022-08-11T23:16:40.853Z,101721.80
2022-08-11T23:20:08.649Z,101723.00
2022-08-11T23:22:50.052Z,101721.40
2022-08-11T23:25:38.461Z,101721.40
2022-08-11T23:28:28.856Z,101722.80
2022-08-11T23:31:17.923Z,101722.40
2022-08-11T23:34:41.561Z,101733.80
2022-08-11T23:37:18.885Z,101732.40
2022-08-11T23:40:06.211Z,101725.60
2022-08-11T23:42:58.961Z,101729.60
2022-08-11T23:45:47.105Z,101738.00
2022-08-11T23:48:36.987Z,101732.80
2022-08-11T23:51:25.437Z,101736.40
2022-08-11T23:54:36.483Z,101727.80
2022-08-11T23:57:25.277Z,101732.00
